sensor_id;sensor_type;location;lat;lon;timestamp;pressure;altitude;pressure_sealevel;temperature;humidity
7058;BME280;3570;43.080;25.628;2023-08-30T00:01:52;-20184.72;;;25.23;75.46
7058;BME280;3570;43.080;25.628;2023-08-30T00:04:36;-20178.94;;;25.02;76.11
7058;BME280;3570;43.080;25.628;2023-08-30T00:07:20;-20191.50;;;25.46;77.83
7058;BME280;3570;43.080;25.628;2023-08-30T00:10:04;-20190.94;;;25.44;79.15
7058;BME280;3570;43.080;25.628;2023-08-30T00:12:48;-20204.34;;;25.91;78.56
7058;BME280;3570;43.080;25.628;2023-08-30T00:15:32;-20200.31;;;25.77;77.42
7058;BME280;3570;43.080;25.628;2023-08-30T00:18:16;-20196.84;;;25.65;77.91
7058;BME280;3570;43.080;25.628;2023-08-30T00:21:02;-20203.75;;;25.89;77.71
7058;BME280;3570;43.080;25.628;2023-08-30T00:23:46;-20200.44;;;25.77;77.92
7058;BME280;3570;43.080;25.628;2023-08-30T00:26:30;-20183.56;;;25.18;77.82
7058;BME280;3570;43.080;25.628;2023-08-30T00:29:14;-20172.75;;;24.81;79.05
7058;BME280;3570;43.080;25.628;2023-08-30T00:31:58;-20161.34;;;24.41;80.76
7058;BME280;3570;43.080;25.628;2023-08-30T00:34:42;-20158.75;;;24.32;81.93
7058;BME280;3570;43.080;25.628;2023-08-30T00:37:26;-20148.47;;;23.96;82.92
7058;BME280;3570;43.080;25.628;2023-08-30T00:40:10;-20153.41;;;24.13;83.69
7058;BME280;3570;43.080;25.628;2023-08-30T00:42:54;-20152.69;;;24.11;84.17
7058;BME280;3570;43.080;25.628;2023-08-30T00:45:39;-20149.50;;;24.00;84.77
7058;BME280;3570;43.080;25.628;2023-08-30T00:48:24;-20148.34;;;23.96;84.98
7058;BME280;3570;43.080;25.628;2023-08-30T00:51:08;-20143.00;;;23.77;85.49
7058;BME280;3570;43.080;25.628;2023-08-30T00:53:54;-20147.75;;;23.94;85.59
7058;BME280;3570;43.080;25.628;2023-08-30T00:56:38;-20139.97;;;23.67;86.13
7058;BME280;3570;43.080;25.628;2023-08-30T00:59:22;-20144.00;;;23.81;86.76
7058;BME280;3570;43.080;25.628;2023-08-30T01:02:07;-20142.72;;;23.76;87.45
7058;BME280;3570;43.080;25.628;2023-08-30T01:04:52;-20126.66;;;23.20;87.14
7058;BME280;3570;43.080;25.628;2023-08-30T01:07:36;-20133.31;;;23.44;88.12
7058;BME280;3570;43.080;25.628;2023-08-30T01:10:27;-20133.75;;;23.45;88.82
7058;BME280;3570;43.080;25.628;2023-08-30T01:13:19;-20129.56;;;23.30;88.79
7058;BME280;3570;43.080;25.628;2023-08-30T01:16:04;-20140.09;;;23.67;89.04
7058;BME280;3570;43.080;25.628;2023-08-30T01:18:48;-20138.38;;;23.61;89.18
7058;BME280;3570;43.080;25.628;2023-08-30T01:21:54;-20135.47;;;23.51;89.76
7058;BME280;3570;43.080;25.628;2023-08-30T01:24:45;-20140.69;;;23.69;89.71
7058;BME280;3570;43.080;25.628;2023-08-30T01:27:33;-20136.94;;;23.56;90.31
7058;BME280;3570;43.080;25.628;2023-08-30T01:30:20;-20131.56;;;23.38;91.34
7058;BME280;3570;43.080;25.628;2023-08-30T01:33:05;-20129.13;;;23.29;92.39
7058;BME280;3570;43.080;25.628;2023-08-30T01:35:51;-20130.56;;;23.34;92.06
7058;BME280;3570;43.080;25.628;2023-08-30T01:38:36;-20138.81;;;23.63;92.16
7058;BME280;3570;43.080;25.628;2023-08-30T01:41:21;-20144.16;;;23.81;90.40
7058;BME280;3570;43.080;25.628;2023-08-30T01:44:08;-20153.81;;;24.15;88.03
7058;BME280;3570;43.080;25.628;2023-08-30T01:46:53;-20179.38;;;25.04;84.00
7058;BME280;3570;43.080;25.628;2023-08-30T01:49:38;-20172.59;;;24.80;83.86
7058;BME280;3570;43.080;25.628;2023-08-30T01:52:24;-20158.88;;;24.33;85.54
7058;BME280;3570;43.080;25.628;2023-08-30T01:55:08;-20160.91;;;24.40;86.68
7058;BME280;3570;43.080;25.628;2023-08-30T01:57:54;-20146.47;;;23.89;88.35
7058;BME280;3570;43.080;25.628;2023-08-30T02:00:38;-20136.22;;;23.54;91.40
7058;BME280;3570;43.080;25.628;2023-08-30T02:03:23;-20121.75;;;23.03;93.75
7058;BME280;3570;43.080;25.628;2023-08-30T02:06:36;-20120.31;;;22.98;96.45
7058;BME280;3570;43.080;25.628;2023-08-30T02:09:42;-20115.09;;;22.80;97.80
7058;BME280;3570;43.080;25.628;2023-08-30T02:12:41;-20119.00;;;22.94;98.18
7058;BME280;3570;43.080;25.628;2023-08-30T02:15:26;-20117.13;;;22.87;97.89
7058;BME280;3570;43.080;25.628;2023-08-30T02:18:11;-20116.97;;;22.87;98.66
7058;BME280;3570;43.080;25.628;2023-08-30T02:20:55;-20113.06;;;22.73;99.94
7058;BME280;3570;43.080;25.628;2023-08-30T02:23:40;-20109.03;;;22.59;100.00
7058;BME280;3570;43.080;25.628;2023-08-30T02:26:24;-20100.91;;;22.31;100.00
7058;BME280;3570;43.080;25.628;2023-08-30T02:29:08;-20103.22;;;22.39;100.00
7058;BME280;3570;43.080;25.628;2023-08-30T02:31:53;-20099.91;;;22.27;100.00
7058;BME280;3570;43.080;25.628;2023-08-30T02:34:37;-20096.13;;;22.14;100.00
7058;BME280;3570;43.080;25.628;2023-08-30T02:37:21;-20099.03;;;22.24;100.00
7058;BME280;3570;43.080;25.628;2023-08-30T02:40:06;-20095.00;;;22.10;100.00
7058;BME280;3570;43.080;25.628;2023-08-30T02:42:50;-20100.78;;;22.30;100.00
7058;BME280;3570;43.080;25.628;2023-08-30T02:45:34;-20098.31;;;22.22;100.00
7058;BME280;3570;43.080;25.628;2023-08-30T02:48:18;-20102.38;;;22.36;100.00
7058;BME280;3570;43.080;25.628;2023-08-30T02:51:02;-20099.63;;;22.26;100.00
7058;BME280;3570;43.080;25.628;2023-08-30T02:53:46;-20101.50;;;22.33;100.00
7058;BME280;3570;43.080;25.628;2023-08-30T02:56:31;-20103.94;;;22.41;100.00
7058;BME280;3570;43.080;25.628;2023-08-30T02:59:15;-20104.38;;;22.43;100.00
7058;BME280;3570;43.080;25.628;2023-08-30T03:01:59;-20107.44;;;22.54;100.00
7058;BME280;3570;43.080;25.628;2023-08-30T03:04:43;-20124.06;;;23.11;100.00
7058;BME280;3570;43.080;25.628;2023-08-30T03:07:30;-20138.53;;;23.62;98.12
7058;BME280;3570;43.080;25.628;2023-08-30T03:10:14;-20140.81;;;23.70;96.97
7058;BME280;3570;43.080;25.628;2023-08-30T03:12:58;-20140.41;;;23.68;97.15
7058;BME280;3570;43.080;25.628;2023-08-30T03:15:43;-20141.41;;;23.72;97.29
7058;BME280;3570;43.080;25.628;2023-08-30T03:18:27;-20123.47;;;23.09;100.00
7058;BME280;3570;43.080;25.628;2023-08-30T03:21:11;-20118.28;;;22.91;100.00
7058;BME280;3570;43.080;25.628;2023-08-30T03:23:55;-20113.66;;;22.75;100.00
7058;BME280;3570;43.080;25.628;2023-08-30T03:26:39;-20121.75;;;23.03;100.00
7058;BME280;3570;43.080;25.628;2023-08-30T03:29:24;-20116.53;;;22.85;100.00
7058;BME280;3570;43.080;25.628;2023-08-30T03:32:08;-20121.47;;;23.02;100.00
7058;BME280;3570;43.080;25.628;2023-08-30T03:34:52;-20147.19;;;23.92;97.11
7058;BME280;3570;43.080;25.628;2023-08-30T03:37:36;-20157.88;;;24.29;94.51
7058;BME280;3570;43.080;25.628;2023-08-30T03:40:20;-20162.63;;;24.46;93.02
7058;BME280;3570;43.080;25.628;2023-08-30T03:43:04;-20171.16;;;24.75;90.31
7058;BME280;3570;43.080;25.628;2023-08-30T03:45:48;-20173.19;;;24.82;89.84
7058;BME280;3570;43.080;25.628;2023-08-30T03:48:32;-20176.94;;;24.95;88.65
7058;BME280;3570;43.080;25.628;2023-08-30T03:51:16;-20179.81;;;25.05;88.32
7058;BME280;3570;43.080;25.628;2023-08-30T03:54:00;-20185.31;;;25.25;87.13
7058;BME280;3570;43.080;25.628;2023-08-30T03:56:45;-20185.31;;;25.25;87.35
7058;BME280;3570;43.080;25.628;2023-08-30T03:59:29;-20179.81;;;25.05;87.23
7058;BME280;3570;43.080;25.628;2023-08-30T04:02:13;-20176.63;;;24.94;88.60
7058;BME280;3570;43.080;25.628;2023-08-30T04:04:56;-20172.75;;;24.81;89.38
7058;BME280;3570;43.080;25.628;2023-08-30T04:07:40;-20159.03;;;24.33;91.86
7058;BME280;3570;43.080;25.628;2023-08-30T04:10:25;-20156.72;;;24.25;92.76
7058;BME280;3570;43.080;25.628;2023-08-30T04:13:09;-20141.25;;;23.71;95.51
7058;BME280;3570;43.080;25.628;2023-08-30T04:15:53;-20115.38;;;22.81;100.00
7058;BME280;3570;43.080;25.628;2023-08-30T04:18:37;-20110.31;;;22.64;100.00
7058;BME280;3570;43.080;25.628;2023-08-30T04:21:21;-20094.56;;;22.09;100.00
7058;BME280;3570;43.080;25.628;2023-08-30T04:24:05;-20102.94;;;22.38;100.00
7058;BME280;3570;43.080;25.628;2023-08-30T04:26:49;-20107.56;;;22.54;100.00
7058;BME280;3570;43.080;25.628;2023-08-30T04:29:35;-20107.44;;;22.54;100.00
7058;BME280;3570;43.080;25.628;2023-08-30T04:32:19;-20104.97;;;22.45;100.00
7058;BME280;3570;43.080;25.628;2023-08-30T04:35:03;-20098.75;;;22.23;100.00
7058;BME280;3570;43.080;25.628;2023-08-30T04:37:47;-20096.00;;;22.14;100.00
7058;BME280;3570;43.080;25.628;2023-08-30T04:40:34;-20098.88;;;22.24;100.00
7058;BME280;3570;43.080;25.628;2023-08-30T04:43:18;-20102.78;;;22.37;100.00
7058;BME280;3570;43.080;25.628;2023-08-30T04:46:02;-20111.34;;;22.67;100.00
7058;BME280;3570;43.080;25.628;2023-08-30T04:48:46;-20110.19;;;22.63;100.00
7058;BME280;3570;43.080;25.628;2023-08-30T04:51:30;-20106.69;;;22.51;100.00
7058;BME280;3570;43.080;25.628;2023-08-30T04:54:14;-20114.38;;;22.78;100.00
7058;BME280;3570;43.080;25.628;2023-08-30T04:56:58;-20113.22;;;22.74;100.00
7058;BME280;3570;43.080;25.628;2023-08-30T04:59:45;-20119.72;;;22.96;100.00
7058;BME280;3570;43.080;25.628;2023-08-30T05:02:30;-20115.69;;;22.82;100.00
7058;BME280;3570;43.080;25.628;2023-08-30T05:05:14;-20102.50;;;22.36;100.00
7058;BME280;3570;43.080;25.628;2023-08-30T05:07:58;-20117.41;;;22.88;100.00
7058;BME280;3570;43.080;25.628;2023-08-30T05:10:42;-20126.81;;;23.21;100.00
7058;BME280;3570;43.080;25.628;2023-08-30T05:13:27;-20127.25;;;23.22;100.00
7058;BME280;3570;43.080;25.628;2023-08-30T05:16:11;-20125.06;;;23.15;100.00
7058;BME280;3570;43.080;25.628;2023-08-30T05:18:55;-20123.19;;;23.08;100.00
7058;BME280;3570;43.080;25.628;2023-08-30T05:21:38;-20125.50;;;23.16;100.00
7058;BME280;3570;43.080;25.628;2023-08-30T05:24:23;-20116.53;;;22.85;100.00
7058;BME280;3570;43.080;25.628;2023-08-30T05:27:07;-20114.22;;;22.77;100.00
7058;BME280;3570;43.080;25.628;2023-08-30T05:29:52;-20112.34;;;22.71;100.00
7058;BME280;3570;43.080;25.628;2023-08-30T05:32:36;-20116.81;;;22.86;100.00
7058;BME280;3570;43.080;25.628;2023-08-30T05:35:20;-20124.19;;;23.12;100.00
7058;BME280;3570;43.080;25.628;2023-08-30T05:38:04;-20124.19;;;23.12;100.00
7058;BME280;3570;43.080;25.628;2023-08-30T05:40:48;-20124.06;;;23.11;100.00
7058;BME280;3570;43.080;25.628;2023-08-30T05:43:32;-20126.38;;;23.19;100.00
7058;BME280;3570;43.080;25.628;2023-08-30T05:46:15;-20126.66;;;23.20;100.00
7058;BME280;3570;43.080;25.628;2023-08-30T05:48:59;-20128.25;;;23.26;100.00
7058;BME280;3570;43.080;25.628;2023-08-30T05:51:46;-20131.16;;;23.36;100.00
7058;BME280;3570;43.080;25.628;2023-08-30T05:54:31;-20131.88;;;23.39;100.00
7058;BME280;3570;43.080;25.628;2023-08-30T05:57:17;-20129.56;;;23.30;100.00
7058;BME280;3570;43.080;25.628;2023-08-30T06:00:01;-20130.13;;;23.32;100.00
7058;BME280;3570;43.080;25.628;2023-08-30T06:02:46;-20128.09;;;23.25;100.00
7058;BME280;3570;43.080;25.628;2023-08-30T06:05:30;-20131.88;;;23.39;100.00
7058;BME280;3570;43.080;25.628;2023-08-30T06:08:14;-20140.69;;;23.69;100.00
7058;BME280;3570;43.080;25.628;2023-08-30T06:10:58;-20150.22;;;24.02;98.19
7058;BME280;3570;43.080;25.628;2023-08-30T06:13:42;-20156.44;;;24.24;93.76
7058;BME280;3570;43.080;25.628;2023-08-30T06:16:26;-20164.50;;;24.52;93.61
7058;BME280;3570;43.080;25.628;2023-08-30T06:19:11;-20180.69;;;25.08;90.85
7058;BME280;3570;43.080;25.628;2023-08-30T06:21:55;-20197.56;;;25.67;86.55
7058;BME280;3570;43.080;25.628;2023-08-30T06:24:39;-20212.84;;;26.21;83.30
7058;BME280;3570;43.080;25.628;2023-08-30T06:27:23;-20209.53;;;26.09;83.83
7058;BME280;3570;43.080;25.628;2023-08-30T06:30:08;-20218.63;;;26.41;81.96
7058;BME280;3570;43.080;25.628;2023-08-30T06:32:53;-20228.13;;;26.74;80.08
7058;BME280;3570;43.080;25.628;2023-08-30T06:35:37;-20237.63;;;27.07;77.79
7058;BME280;3570;43.080;25.628;2023-08-30T06:38:23;-20237.91;;;27.08;77.72
7058;BME280;3570;43.080;25.628;2023-08-30T06:41:07;-20247.44;;;27.41;77.87
7058;BME280;3570;43.080;25.628;2023-08-30T06:43:51;-20254.03;;;27.64;75.87
7058;BME280;3570;43.080;25.628;2023-08-30T06:46:35;-20259.50;;;27.83;73.96
7058;BME280;3570;43.080;25.628;2023-08-30T06:49:19;-20264.41;;;28.01;72.83
7058;BME280;3570;43.080;25.628;2023-08-30T06:52:03;-20268.44;;;28.15;71.43
7058;BME280;3570;43.080;25.628;2023-08-30T06:54:48;-20270.16;;;28.21;70.51
7058;BME280;3570;43.080;25.628;2023-08-30T06:57:32;-20279.50;;;28.53;69.76
7058;BME280;3570;43.080;25.628;2023-08-30T07:00:17;-20282.41;;;28.63;69.00
7058;BME280;3570;43.080;25.628;2023-08-30T07:03:01;-20282.81;;;28.65;68.58
7058;BME280;3570;43.080;25.628;2023-08-30T07:05:46;-20288.00;;;28.83;68.79
7058;BME280;3570;43.080;25.628;2023-08-30T07:08:33;-20289.56;;;28.89;68.38
7058;BME280;3570;43.080;25.628;2023-08-30T07:11:17;-20292.44;;;28.99;66.46
7058;BME280;3570;43.080;25.628;2023-08-30T07:14:01;-20290.88;;;28.93;68.47
7058;BME280;3570;43.080;25.628;2023-08-30T07:16:45;-20292.31;;;28.98;65.66
7058;BME280;3570;43.080;25.628;2023-08-30T07:19:29;-20294.19;;;29.05;65.70
7058;BME280;3570;43.080;25.628;2023-08-30T07:22:13;-20294.75;;;29.07;64.93
7058;BME280;3570;43.080;25.628;2023-08-30T07:25:00;-20274.47;;;28.36;67.40
7058;BME280;3570;43.080;25.628;2023-08-30T07:27:44;-20271.03;;;28.24;68.25
7058;BME280;3570;43.080;25.628;2023-08-30T07:30:28;-20271.59;;;28.26;68.71
7058;BME280;3570;43.080;25.628;2023-08-30T07:33:13;-20271.59;;;28.26;70.17
7058;BME280;3570;43.080;25.628;2023-08-30T07:35:57;-20280.09;;;28.55;66.29
7058;BME280;3570;43.080;25.628;2023-08-30T07:38:41;-20281.81;;;28.61;66.97
7058;BME280;3570;43.080;25.628;2023-08-30T07:41:25;-20291.00;;;28.94;65.70
7058;BME280;3570;43.080;25.628;2023-08-30T07:44:09;-20299.22;;;29.22;63.04
7058;BME280;3570;43.080;25.628;2023-08-30T07:46:53;-20313.72;;;29.73;61.26
7058;BME280;3570;43.080;25.628;2023-08-30T07:49:37;-20319.91;;;29.95;60.38
7058;BME280;3570;43.080;25.628;2023-08-30T07:52:21;-20321.91;;;30.02;59.05
7058;BME280;3570;43.080;25.628;2023-08-30T07:55:06;-20330.22;;;30.31;57.54
7058;BME280;3570;43.080;25.628;2023-08-30T07:57:50;-20332.81;;;30.40;57.40
7058;BME280;3570;43.080;25.628;2023-08-30T08:00:34;-20321.47;;;30.00;56.77
7058;BME280;3570;43.080;25.628;2023-08-30T08:03:20;-20328.78;;;30.26;58.20
7058;BME280;3570;43.080;25.628;2023-08-30T08:06:04;-20346.16;;;30.87;55.73
7058;BME280;3570;43.080;25.628;2023-08-30T08:08:48;-20334.53;;;30.46;55.62
7058;BME280;3570;43.080;25.628;2023-08-30T08:11:32;-20345.88;;;30.86;55.14
7058;BME280;3570;43.080;25.628;2023-08-30T08:14:16;-20351.59;;;31.06;54.17
7058;BME280;3570;43.080;25.628;2023-08-30T08:17:00;-20346.16;;;30.87;53.00
7058;BME280;3570;43.080;25.628;2023-08-30T08:19:44;-20347.03;;;30.90;53.56
7058;BME280;3570;43.080;25.628;2023-08-30T08:22:28;-20355.06;;;31.18;53.05
7058;BME280;3570;43.080;25.628;2023-08-30T08:25:12;-20358.78;;;31.31;52.21
7058;BME280;3570;43.080;25.628;2023-08-30T08:27:56;-20361.94;;;31.42;52.60
7058;BME280;3570;43.080;25.628;2023-08-30T08:30:40;-20366.38;;;31.58;51.12
7058;BME280;3570;43.080;25.628;2023-08-30T08:33:26;-20363.50;;;31.47;50.50
7058;BME280;3570;43.080;25.628;2023-08-30T08:36:10;-20364.94;;;31.53;51.88
7058;BME280;3570;43.080;25.628;2023-08-30T08:38:55;-20370.81;;;31.73;51.02
7058;BME280;3570;43.080;25.628;2023-08-30T08:41:40;-20374.41;;;31.86;50.12
7058;BME280;3570;43.080;25.628;2023-08-30T08:44:31;-20389.03;;;32.37;49.11
7058;BME280;3570;43.080;25.628;2023-08-30T08:47:16;-20392.59;;;32.50;48.22
7058;BME280;3570;43.080;25.628;2023-08-30T08:50:03;-20395.75;;;32.61;47.65
7058;BME280;3570;43.080;25.628;2023-08-30T08:52:48;-20399.47;;;32.74;46.23
7058;BME280;3570;43.080;25.628;2023-08-30T08:55:32;-20392.75;;;32.50;46.88
7058;BME280;3570;43.080;25.628;2023-08-30T08:58:18;-20407.63;;;33.02;46.67
7058;BME280;3570;43.080;25.628;2023-08-30T09:01:03;-20414.94;;;33.28;45.91
7058;BME280;3570;43.080;25.628;2023-08-30T09:03:48;-20425.38;;;33.65;44.09
7058;BME280;3570;43.080;25.628;2023-08-30T09:06:36;-20429.81;;;33.80;44.10
7058;BME280;3570;43.080;25.628;2023-08-30T09:09:20;-20446.97;;;34.41;43.03
7058;BME280;3570;43.080;25.628;2023-08-30T09:12:06;-20460.38;;;34.88;40.62
7058;BME280;3570;43.080;25.628;2023-08-30T09:14:54;-20482.50;;;35.66;39.10
7058;BME280;3570;43.080;25.628;2023-08-30T09:17:39;-20493.94;;;36.06;38.33
7058;BME280;3570;43.080;25.628;2023-08-30T09:20:23;-20507.75;;;36.55;37.06
7058;BME280;3570;43.080;25.628;2023-08-30T09:23:16;-20522.72;;;37.08;36.25
7058;BME280;3570;43.080;25.628;2023-08-30T09:26:01;-20520.59;;;37.00;35.64
7058;BME280;3570;43.080;25.628;2023-08-30T09:28:49;-20525.16;;;37.16;34.81
7058;BME280;3570;43.080;25.628;2023-08-30T09:31:35;-20530.56;;;37.35;34.47
7058;BME280;3570;43.080;25.628;2023-08-30T09:34:24;-20541.09;;;37.72;33.82
7058;BME280;3570;43.080;25.628;2023-08-30T09:37:22;-20526.72;;;37.22;35.43
7058;BME280;3570;43.080;25.628;2023-08-30T09:40:06;-20486.09;;;35.78;37.44
7058;BME280;3570;43.080;25.628;2023-08-30T09:42:50;-20477.53;;;35.48;38.78
7058;BME280;3570;43.080;25.628;2023-08-30T09:45:35;-20520.03;;;36.98;36.38
7058;BME280;3570;43.080;25.628;2023-08-30T09:48:22;-20525.16;;;37.16;35.04
7058;BME280;3570;43.080;25.628;2023-08-30T09:51:12;-20527.44;;;37.24;35.84
7058;BME280;3570;43.080;25.628;2023-08-30T09:53:58;-20489.94;;;35.92;37.88
7058;BME280;3570;43.080;25.628;2023-08-30T09:56:44;-20502.19;;;36.35;37.44
7058;BME280;3570;43.080;25.628;2023-08-30T09:59:29;-20509.19;;;36.60;36.99
7058;BME280;3570;43.080;25.628;2023-08-30T10:02:15;-20499.50;;;36.26;37.54
7058;BME280;3570;43.080;25.628;2023-08-30T10:04:59;-20491.66;;;35.98;38.38
7058;BME280;3570;43.080;25.628;2023-08-30T10:07:44;-20521.72;;;37.04;36.32
7058;BME280;3570;43.080;25.628;2023-08-30T10:10:31;-20560.00;;;38.39;34.16
7058;BME280;3570;43.080;25.628;2023-08-30T10:13:15;-20591.28;;;39.50;32.18
7058;BME280;3570;43.080;25.628;2023-08-30T10:16:01;-20604.22;;;39.96;32.21
7058;BME280;3570;43.080;25.628;2023-08-30T10:18:54;-20601.94;;;39.88;31.68
7058;BME280;3570;43.080;25.628;2023-08-30T10:21:38;-20588.03;;;39.38;31.90
7058;BME280;3570;43.080;25.628;2023-08-30T10:24:24;-20570.81;;;38.78;33.50
7058;BME280;3570;43.080;25.628;2023-08-30T10:27:08;-20557.75;;;38.31;34.34
7058;BME280;3570;43.080;25.628;2023-08-30T10:29:54;-20593.84;;;39.59;31.74
7058;BME280;3570;43.080;25.628;2023-08-30T10:32:43;-20606.06;;;40.02;31.14
7058;BME280;3570;43.080;25.628;2023-08-30T10:35:27;-20604.91;;;39.98;31.48
7058;BME280;3570;43.080;25.628;2023-08-30T10:38:11;-20626.34;;;40.74;30.35
7058;BME280;3570;43.080;25.628;2023-08-30T10:40:55;-20630.44;;;40.89;29.63
7058;BME280;3570;43.080;25.628;2023-08-30T10:43:39;-20657.50;;;41.85;28.76
7058;BME280;3570;43.080;25.628;2023-08-30T10:46:33;-20664.03;;;42.08;28.54
7058;BME280;3570;43.080;25.628;2023-08-30T10:49:18;-20675.22;;;42.48;27.86
7058;BME280;3570;43.080;25.628;2023-08-30T10:52:03;-20653.56;;;41.71;29.04
7058;BME280;3570;43.080;25.628;2023-08-30T10:54:47;-20650.72;;;41.61;29.22
7058;BME280;3570;43.080;25.628;2023-08-30T10:57:31;-20644.47;;;41.39;28.62
7058;BME280;3570;43.080;25.628;2023-08-30T11:03:02;-20660.06;;;41.94;27.79
7058;BME280;3570;43.080;25.628;2023-08-30T11:05:46;-20626.34;;;40.74;29.20
7058;BME280;3570;43.080;25.628;2023-08-30T11:08:33;-20624.22;;;40.67;29.59
7058;BME280;3570;43.080;25.628;2023-08-30T11:11:19;-20615.84;;;40.37;30.01
7058;BME280;3570;43.080;25.628;2023-08-30T11:14:06;-20641.78;;;41.29;28.71
7058;BME280;3570;43.080;25.628;2023-08-30T11:16:50;-20627.19;;;40.77;29.93
7058;BME280;3570;43.080;25.628;2023-08-30T11:19:34;-20669.25;;;42.27;27.92
7058;BME280;3570;43.080;25.628;2023-08-30T11:22:18;-20661.19;;;41.98;28.31
7058;BME280;3570;43.080;25.628;2023-08-30T11:25:03;-20665.31;;;42.13;27.14
7058;BME280;3570;43.080;25.628;2023-08-30T11:27:47;-20697.41;;;43.27;26.47
7058;BME280;3570;43.080;25.628;2023-08-30T11:30:31;-20710.69;;;43.74;26.33
7058;BME280;3570;43.080;25.628;2023-08-30T11:33:18;-20690.91;;;43.04;26.44
7058;BME280;3570;43.080;25.628;2023-08-30T11:36:03;-20691.91;;;43.07;26.41
7058;BME280;3570;43.080;25.628;2023-08-30T11:38:52;-20694.16;;;43.15;26.21
7058;BME280;3570;43.080;25.628;2023-08-30T11:41:37;-20688.50;;;42.95;27.24
7058;BME280;3570;43.080;25.628;2023-08-30T11:44:23;-20659.22;;;41.91;27.59
7058;BME280;3570;43.080;25.628;2023-08-30T11:47:08;-20664.59;;;42.10;27.56
7058;BME280;3570;43.080;25.628;2023-08-30T11:49:57;-20692.75;;;43.10;26.50
7058;BME280;3570;43.080;25.628;2023-08-30T11:52:43;-20709.00;;;43.68;26.01
7058;BME280;3570;43.080;25.628;2023-08-30T11:55:27;-20719.16;;;44.04;25.62
7058;BME280;3570;43.080;25.628;2023-08-30T11:58:11;-20726.22;;;44.29;25.15
7058;BME280;3570;43.080;25.628;2023-08-30T12:00:55;-20702.22;;;43.44;25.58
7058;BME280;3570;43.080;25.628;2023-08-30T12:03:39;-20669.41;;;42.27;26.58
7058;BME280;3570;43.080;25.628;2023-08-30T12:06:23;-20667.69;;;42.21;27.23
7058;BME280;3570;43.080;25.628;2023-08-30T12:09:13;-20655.81;;;41.79;27.44
7058;BME280;3570;43.080;25.628;2023-08-30T12:12:06;-20692.59;;;43.10;27.16
7058;BME280;3570;43.080;25.628;2023-08-30T12:14:57;-20714.78;;;43.88;25.27
7058;BME280;3570;43.080;25.628;2023-08-30T12:17:41;-20719.44;;;44.05;24.78
7058;BME280;3570;43.080;25.628;2023-08-30T12:20:25;-20710.41;;;43.73;24.91
7058;BME280;3570;43.080;25.628;2023-08-30T12:23:22;-20744.13;;;44.93;24.23
7058;BME280;3570;43.080;25.628;2023-08-30T12:26:10;-20731.03;;;44.46;25.11
7058;BME280;3570;43.080;25.628;2023-08-30T12:28:54;-20758.78;;;45.45;24.12
7058;BME280;3570;43.080;25.628;2023-08-30T12:31:39;-20783.31;;;46.33;23.36
7058;BME280;3570;43.080;25.628;2023-08-30T12:34:22;-20791.19;;;46.61;23.38
7058;BME280;3570;43.080;25.628;2023-08-30T12:37:07;-20770.22;;;45.86;23.39
7058;BME280;3570;43.080;25.628;2023-08-30T12:39:51;-20734.13;;;44.57;24.71
7058;BME280;3570;43.080;25.628;2023-08-30T12:42:35;-20755.00;;;45.32;23.98
7058;BME280;3570;43.080;25.628;2023-08-30T12:45:18;-20786.97;;;46.46;22.60
7058;BME280;3570;43.080;25.628;2023-08-30T12:48:03;-20796.25;;;46.79;22.12
7058;BME280;3570;43.080;25.628;2023-08-30T12:50:47;-20761.47;;;45.55;23.25
7058;BME280;3570;43.080;25.628;2023-08-30T12:53:32;-20772.88;;;45.96;22.95
7058;BME280;3570;43.080;25.628;2023-08-30T12:56:16;-20761.75;;;45.56;23.57
7058;BME280;3570;43.080;25.628;2023-08-30T12:59:00;-20716.47;;;43.95;24.69
7058;BME280;3570;43.080;25.628;2023-08-30T13:01:43;-20645.06;;;41.41;27.47
7058;BME280;3570;43.080;25.628;2023-08-30T13:04:27;-20593.56;;;39.58;29.55
7058;BME280;3570;43.080;25.628;2023-08-30T13:07:11;-20524.72;;;37.15;32.94
7058;BME280;3570;43.080;25.628;2023-08-30T13:09:55;-20497.78;;;36.20;34.94
7058;BME280;3570;43.080;25.628;2023-08-30T13:12:40;-20477.66;;;35.49;35.70
7058;BME280;3570;43.080;25.628;2023-08-30T13:15:24;-20462.41;;;34.95;36.73
7058;BME280;3570;43.080;25.628;2023-08-30T13:18:08;-20447.53;;;34.43;38.51
7058;BME280;3570;43.080;25.628;2023-08-30T13:20:55;-20446.69;;;34.40;39.49
7058;BME280;3570;43.080;25.628;2023-08-30T13:23:39;-20435.38;;;34.00;39.74
7058;BME280;3570;43.080;25.628;2023-08-30T13:26:23;-20438.97;;;34.12;40.60
7058;BME280;3570;43.080;25.628;2023-08-30T13:29:07;-20429.81;;;33.80;41.05
7058;BME280;3570;43.080;25.628;2023-08-30T13:31:51;-20427.53;;;33.72;41.89
7058;BME280;3570;43.080;25.628;2023-08-30T13:34:34;-20413.22;;;33.22;42.50
7058;BME280;3570;43.080;25.628;2023-08-30T13:37:18;-20409.22;;;33.08;43.21
7058;BME280;3570;43.080;25.628;2023-08-30T13:40:02;-20353.34;;;31.12;47.92
7058;BME280;3570;43.080;25.628;2023-08-30T13:42:49;-20242.38;;;27.24;65.68
7058;BME280;3570;43.080;25.628;2023-08-30T13:45:33;-20215.59;;;26.30;80.46
7058;BME280;3570;43.080;25.628;2023-08-30T13:48:17;-20171.44;;;24.76;100.00
7058;BME280;3570;43.080;25.628;2023-08-30T13:51:03;-20121.88;;;23.04;100.00
7058;BME280;3570;43.080;25.628;2023-08-30T13:53:47;-20082.41;;;21.67;100.00
7058;BME280;3570;43.080;25.628;2023-08-30T13:56:31;-20070.22;;;21.24;100.00
7058;BME280;3570;43.080;25.628;2023-08-30T13:59:16;-20071.97;;;21.30;100.00
7058;BME280;3570;43.080;25.628;2023-08-30T14:02:02;-20102.50;;;22.36;100.00
7058;BME280;3570;43.080;25.628;2023-08-30T14:04:47;-20152.69;;;24.11;100.00
7058;BME280;3570;43.080;25.628;2023-08-30T14:07:31;-20185.88;;;25.27;100.00
7058;BME280;3570;43.080;25.628;2023-08-30T14:10:15;-20211.13;;;26.15;100.00
7058;BME280;3570;43.080;25.628;2023-08-30T14:13:02;-20205.22;;;25.94;100.00
7058;BME280;3570;43.080;25.628;2023-08-30T14:15:46;-20191.78;;;25.47;100.00
7058;BME280;3570;43.080;25.628;2023-08-30T14:18:31;-20185.72;;;25.26;100.00
7058;BME280;3570;43.080;25.628;2023-08-30T14:21:15;-20196.25;;;25.63;100.00
7058;BME280;3570;43.080;25.628;2023-08-30T14:24:00;-20212.56;;;26.20;100.00
7058;BME280;3570;43.080;25.628;2023-08-30T14:26:45;-20235.19;;;26.98;100.00
7058;BME280;3570;43.080;25.628;2023-08-30T14:29:28;-20240.22;;;27.16;100.00
7058;BME280;3570;43.080;25.628;2023-08-30T14:32:12;-20230.72;;;26.83;100.00
7058;BME280;3570;43.080;25.628;2023-08-30T14:34:57;-20215.16;;;26.29;100.00